Погода Резендина неделю

Рио-де-Жанейро, Бразилия

24 - 30 июля
  • 24июля
    Сегодня
    +10°
    +23°
    Ясно и безоблачно
    ВремяПогодаТемператураВлажностьДавлениеВетер, м/сВероятность осадков
    00:00Ясно и безоблачно+14°C76 %737 мм0.7 м/с5 %
    03:00Ясно и безоблачно+13°C76 %736 мм0.9 м/с5 %
    06:00Ясно и безоблачно+13°C78 %737 мм0.5 м/с5 %
    09:00Ясно и безоблачно+16°C71 %738 мм1.1 м/с5 %
    12:00Ясно и безоблачно+21°C53 %737 мм2.3 м/с5 %
    15:00Ясно и безоблачно+23°C47 %736 мм2.2 м/с5 %
    18:00Ясно и безоблачно+19°C59 %736 мм1.2 м/с5 %
    21:00Ясно и безоблачно+14°C78 %736 мм1.5 м/с5 %
  • 25июля
    Четверг
    +11°
    +24°
    Ясно и безоблачно
    ВремяПогодаТемператураВлажностьДавлениеВетер, м/сВероятность осадков
    00:00Ясно и безоблачно+14°C84 %736 мм0.4 м/с5 %
    03:00Ясно и безоблачно+12°C88 %735 мм0.7 м/с5 %
    06:00Практически безоблачно+10°C92 %735 мм0.7 м/с5 %
    09:00Практически безоблачно+16°C78 %736 мм0.7 м/с5 %
    12:00Ясно и безоблачно+22°C58 %735 мм0.6 м/с5 %
    15:00Ясно и безоблачно+24°C48 %733 мм0.4 м/с5 %
    18:00Ясно и безоблачно+20°C65 %733 мм0.2 м/с5 %
    21:00Ясно и безоблачно+17°C72 %733 мм0.4 м/с5 %
  • 26июля
    Пятница
    +12°
    +25°
    Облачно с прояснениями
    ВремяПогодаТемператураВлажностьДавлениеВетер, м/сВероятность осадков
    00:00Ясно и безоблачно+15°C76 %733 мм0.3 м/с5 %
    03:00Ясно и безоблачно+13°C82 %732 мм0.7 м/с5 %
    06:00Ясно и безоблачно+12°C83 %733 мм0.7 м/с5 %
    09:00Ясно и безоблачно+17°C68 %735 мм0.7 м/с5 %
    12:00Ясно и безоблачно+23°C48 %734 мм0.9 м/с5 %
    15:00Облачно с прояснениями+24°C41 %732 мм0.7 м/с5 %
    18:00Облачно с прояснениями+19°C60 %732 мм0.9 м/с5 %
    21:00Облачно с прояснениями+16°C72 %733 мм1.2 м/с5 %
  • 27июля
    Суббота
    +11°
    +25°
    Практически безоблачно
    ВремяПогодаТемператураВлажностьДавлениеВетер, м/сВероятность осадков
    00:00Облачно с прояснениями+17°C65 %734 мм0.2 м/с5 %
    03:00Облачно с прояснениями+15°C71 %733 мм0.2 м/с5 %
    06:00Облачно с прояснениями+13°C80 %733 мм0.6 м/с5 %
    09:00Облачно с прояснениями+18°C66 %735 мм0.6 м/с5 %
    12:00Облачно с прояснениями+23°C49 %734 мм0.7 м/с5 %
    15:00Практически безоблачно+25°C34 %733 мм0.4 м/с5 %
    18:00Практически безоблачно+20°C57 %733 мм0.7 м/с5 %
    21:00Ясно и безоблачно+17°C70 %735 мм1.1 м/с5 %
  • 28июля
    Воскресенье
    +11°
    +25°
    Небольшая облачность
    ВремяПогодаТемператураВлажностьДавлениеВетер, м/сВероятность осадков
    00:00Ясно и безоблачно+15°C76 %734 мм0.7 м/с5 %
    03:00Ясно и безоблачно+13°C84 %733 мм0.8 м/с5 %
    06:00Практически безоблачно+12°C84 %734 мм0.4 м/с5 %
    09:00Облачно с прояснениями+18°C69 %735 мм0.8 м/с5 %
    12:00Практически безоблачно+23°C52 %734 мм0.9 м/с5 %
    15:00Небольшая облачность+25°C45 %733 мм1.5 м/с5 %
    18:00Небольшая облачность+21°C59 %733 мм0.8 м/с7 %
    21:00Практически безоблачно+16°C73 %733 мм0.5 м/с5 %
Мы используем cookies
Соглашаюсь